createdAt,value
2017-07-18T00:01:58.811Z,100578
2017-07-18T00:04:27.110Z,100569
2017-07-18T00:07:10.090Z,100572
2017-07-18T00:09:38.399Z,100574
2017-07-18T00:12:07.411Z,100581
2017-07-18T00:14:35.657Z,100576
2017-07-18T00:17:03.955Z,100577
2017-07-18T00:19:32.184Z,100575
2017-07-18T00:22:13.711Z,100570
2017-07-18T00:24:41.969Z,100573
2017-07-18T00:27:10.998Z,100571
2017-07-18T00:29:39.289Z,100574
2017-07-18T00:32:07.540Z,100565
2017-07-18T00:37:37.304Z,100575
2017-07-18T00:40:05.599Z,100583
2017-07-18T00:42:33.865Z,100589
2017-07-18T00:45:02.174Z,100593
2017-07-18T00:53:30.926Z,100595
2017-07-18T00:55:59.182Z,100590
2017-07-18T00:58:27.428Z,100593
2017-07-18T01:00:55.766Z,100593
2017-07-18T01:03:50.382Z,100583
2017-07-18T01:06:19.025Z,100580
2017-07-18T01:08:47.291Z,100583
2017-07-18T01:11:16.290Z,100589
2017-07-18T01:13:44.624Z,100581
2017-07-18T01:16:25.946Z,100578
2017-07-18T01:24:54.627Z,100564
2017-07-18T01:27:23.246Z,100561
2017-07-18T01:29:51.506Z,100568
2017-07-18T01:32:20.056Z,100567
2017-07-18T01:34:48.329Z,100563
2017-07-18T01:37:16.580Z,100564
2017-07-18T01:39:44.916Z,100569
2017-07-18T01:47:57.687Z,100568
2017-07-18T01:50:25.943Z,100561
2017-07-18T01:52:55.033Z,100565
2017-07-18T01:55:23.312Z,100565
2017-07-18T02:03:52.219Z,100572
2017-07-18T02:06:20.450Z,100572
2017-07-18T02:08:48.700Z,100570
2017-07-18T02:14:37.664Z,100571
2017-07-18T02:17:05.900Z,100570
2017-07-18T02:19:34.128Z,100579
2017-07-18T02:22:03.190Z,100580
2017-07-18T02:27:32.736Z,100587
2017-07-18T02:33:01.120Z,100581
2017-07-18T02:35:29.368Z,100586
2017-07-18T02:40:58.546Z,100579
2017-07-18T02:43:38.784Z,100582
2017-07-18T02:46:07.081Z,100579
2017-07-18T02:48:36.099Z,100578
2017-07-18T02:51:04.351Z,100582
2017-07-18T02:59:34.069Z,100580
2017-07-18T03:02:02.309Z,100582
2017-07-18T03:04:30.600Z,100577
2017-07-18T03:12:59.918Z,100577
2017-07-18T03:15:28.180Z,100590
2017-07-18T03:17:56.428Z,100596
2017-07-18T03:23:25.737Z,100592
2017-07-18T03:25:53.985Z,100592
2017-07-18T03:28:22.235Z,100595
2017-07-18T03:30:50.567Z,100600
2017-07-18T03:36:19.470Z,100600
2017-07-18T03:38:47.704Z,100599
2017-07-18T03:41:16.024Z,100606
2017-07-18T03:43:45.041Z,100599
2017-07-18T03:46:13.301Z,100600
2017-07-18T03:48:42.342Z,100600
2017-07-18T03:54:00.465Z,100608
2017-07-18T03:56:28.781Z,100607
2017-07-18T03:58:57.060Z,100603
2017-07-18T04:04:25.634Z,100612
2017-07-18T04:06:53.886Z,100607
2017-07-18T04:09:22.913Z,100608
2017-07-18T04:11:51.188Z,100619
2017-07-18T04:14:19.450Z,100613
2017-07-18T04:16:48.087Z,100613
2017-07-18T04:19:37.038Z,100617
2017-07-18T04:22:05.320Z,100627
2017-07-18T04:24:33.578Z,100628
2017-07-18T04:27:01.875Z,100618
2017-07-18T04:32:38.622Z,100616
2017-07-18T04:35:06.928Z,100620
2017-07-18T04:37:35.176Z,100619
2017-07-18T04:40:03.483Z,100620
2017-07-18T04:42:31.738Z,100616
2017-07-18T04:48:00.437Z,100619
2017-07-18T04:50:28.690Z,100619
2017-07-18T04:52:56.944Z,100622
2017-07-18T04:55:26.298Z,100629
2017-07-18T04:58:13.992Z,100634
2017-07-18T05:09:43.736Z,100641
2017-07-18T05:18:23.462Z,100644
2017-07-18T05:20:51.704Z,100643
2017-07-18T05:38:23.715Z,100631
2017-07-18T05:55:55.609Z,100626
2017-07-18T05:58:37.266Z,100634
2017-07-18T06:04:06.477Z,100628
2017-07-18T06:06:40.353Z,100621
2017-07-18T06:12:08.697Z,100628
2017-07-18T06:17:39.046Z,100633
2017-07-18T06:23:22.803Z,100622
2017-07-18T06:31:51.599Z,100638
2017-07-18T06:40:09.364Z,100630
2017-07-18T06:48:39.035Z,100633
2017-07-18T06:51:07.629Z,100625
2017-07-18T07:03:05.413Z,100626
2017-07-18T07:05:33.698Z,100620
2017-07-18T07:08:02.313Z,100619
2017-07-18T07:10:30.635Z,100620
2017-07-18T07:12:59.644Z,100620
2017-07-18T07:15:27.902Z,100619
2017-07-18T07:17:59.374Z,100617
2017-07-18T07:20:27.647Z,100616
2017-07-18T07:22:55.897Z,100622
2017-07-18T07:25:24.928Z,100629
2017-07-18T07:27:53.184Z,100619
2017-07-18T07:30:21.761Z,100631
2017-07-18T07:32:49.999Z,100623
2017-07-18T07:35:18.503Z,100620
2017-07-18T07:37:46.835Z,100624
2017-07-18T07:40:15.093Z,100624
2017-07-18T07:42:43.336Z,100618
2017-07-18T07:48:11.889Z,100610
2017-07-18T07:50:46.729Z,100611
2017-07-18T07:56:15.806Z,100603
2017-07-18T07:58:44.037Z,100609
2017-07-18T08:01:43.474Z,100607
2017-07-18T08:04:11.702Z,100610
2017-07-18T08:06:39.956Z,100607
2017-07-18T08:11:45.475Z,100602
2017-07-18T08:14:13.793Z,100599
2017-07-18T08:16:42.045Z,100602
2017-07-18T08:19:10.301Z,100599
2017-07-18T08:21:39.638Z,100595
2017-07-18T08:24:24.766Z,100597
2017-07-18T08:26:53.851Z,100601
2017-07-18T08:44:15.839Z,100592
2017-07-18T08:47:07.387Z,100594
2017-07-18T08:50:03.337Z,100596
2017-07-18T08:52:38.234Z,100590
2017-07-18T08:55:06.542Z,100594
2017-07-18T08:58:02.540Z,100590
2017-07-18T09:03:37.986Z,100594
2017-07-18T09:09:06.848Z,100579
2017-07-18T09:11:38.417Z,100589
2017-07-18T09:14:06.739Z,100580
2017-07-18T09:17:02.532Z,100593
2017-07-18T09:26:02.979Z,100590
2017-07-18T09:28:37.671Z,100576
2017-07-18T09:31:06.083Z,100577
2017-07-18T09:33:34.305Z,100575
2017-07-18T09:36:06.119Z,100575
2017-07-18T09:38:40.585Z,100578
2017-07-18T09:41:08.865Z,100576
2017-07-18T09:43:37.128Z,100573
2017-07-18T09:46:05.388Z,100574
2017-07-18T09:48:33.694Z,100571
2017-07-18T09:51:05.262Z,100583
2017-07-18T09:54:04.667Z,100582
2017-07-18T09:57:03.576Z,100577
2017-07-18T09:59:41.900Z,100570
2017-07-18T10:02:10.125Z,100571
2017-07-18T10:05:05.091Z,100571
2017-07-18T10:08:03.981Z,100567
2017-07-18T10:13:32.127Z,100563
2017-07-18T10:16:01.141Z,100562
2017-07-18T10:27:31.179Z,100557
2017-07-18T10:30:06.424Z,100549
2017-07-18T10:33:03.291Z,100547
2017-07-18T10:39:02.773Z,100553
2017-07-18T10:41:31.043Z,100558
2017-07-18T10:44:05.421Z,100557
2017-07-18T10:47:03.926Z,100549
2017-07-18T10:55:29.617Z,100543
2017-07-18T10:58:05.027Z,100540
2017-07-18T11:00:33.423Z,100537
2017-07-18T11:03:15.289Z,100534
2017-07-18T11:05:43.630Z,100535
2017-07-18T11:11:02.802Z,100530
2017-07-18T11:13:38.680Z,100534
2017-07-18T11:19:37.991Z,100526
2017-07-18T11:22:06.998Z,100522
2017-07-18T11:25:03.356Z,100521
2017-07-18T11:30:38.961Z,100512
2017-07-18T11:36:05.153Z,100518
2017-07-18T11:39:03.060Z,100518
2017-07-18T11:50:33.343Z,100496
2017-07-18T11:56:36.282Z,100485
2017-07-18T11:59:05.423Z,100491
2017-07-18T12:01:40.804Z,100497
2017-07-18T12:04:09.052Z,100488
2017-07-18T12:06:37.310Z,100479
2017-07-18T12:12:05.752Z,100479
2017-07-18T12:14:34.020Z,100480
2017-07-18T12:17:02.246Z,100486
2017-07-18T12:19:30.562Z,100478
2017-07-18T12:21:58.815Z,100476
2017-07-18T12:24:27.055Z,100476
2017-07-18T12:29:56.064Z,100481
2017-07-18T12:32:24.323Z,100476
2017-07-18T12:34:53.364Z,100467
2017-07-18T12:37:21.666Z,100466
2017-07-18T12:39:49.894Z,100468
2017-07-18T12:45:37.739Z,100466
2017-07-18T12:48:06.738Z,100476
2017-07-18T12:50:35.780Z,100466
2017-07-18T12:53:04.006Z,100472
2017-07-18T12:55:39.487Z,100475
2017-07-18T13:01:08.119Z,100460
2017-07-18T13:03:36.383Z,100459
2017-07-18T13:06:04.658Z,100459
2017-07-18T13:08:32.894Z,100464
2017-07-18T13:14:02.363Z,100457
2017-07-18T13:16:30.609Z,100450
2017-07-18T13:18:59.549Z,100444
2017-07-18T13:21:27.870Z,100436
2017-07-18T13:32:57.951Z,100432
2017-07-18T13:35:26.203Z,100426
2017-07-18T13:43:56.509Z,100422
2017-07-18T13:46:55.397Z,100419
2017-07-18T13:49:24.379Z,100430
2017-07-18T14:06:56.816Z,100409
2017-07-18T14:09:25.080Z,100399
2017-07-18T14:11:54.070Z,100395
2017-07-18T14:14:23.688Z,100392
2017-07-18T14:16:52.683Z,100392
2017-07-18T14:19:20.934Z,100390
2017-07-18T14:33:50.399Z,100380
2017-07-18T14:42:19.711Z,100383
2017-07-18T14:44:47.950Z,100371
2017-07-18T14:47:16.947Z,100368
2017-07-18T14:52:46.007Z,100364
2017-07-18T14:55:14.255Z,100362
2017-07-18T14:57:42.510Z,100360
2017-07-18T15:00:10.811Z,100368
2017-07-18T15:05:39.672Z,100361
2017-07-18T15:08:07.941Z,100366
2017-07-18T15:10:36.165Z,100361
2017-07-18T15:13:04.578Z,100361
2017-07-18T15:15:32.794Z,100356
2017-07-18T15:18:01.791Z,100346
2017-07-18T15:20:30.079Z,100344
2017-07-18T15:22:58.333Z,100346
2017-07-18T15:25:26.587Z,100345
2017-07-18T15:27:54.874Z,100343
2017-07-18T15:36:39.470Z,100346
2017-07-18T15:39:08.503Z,100344
2017-07-18T15:41:36.764Z,100346
2017-07-18T15:44:05.048Z,100338
2017-07-18T15:49:35.259Z,100331
2017-07-18T15:52:04.267Z,100333
2017-07-18T15:54:32.731Z,100324
2017-07-18T16:03:01.934Z,100318
2017-07-18T16:05:30.168Z,100313
2017-07-18T16:07:58.477Z,100316
2017-07-18T16:10:26.778Z,100311
2017-07-18T16:12:55.013Z,100302
2017-07-18T16:15:23.259Z,100297
2017-07-18T16:17:51.541Z,100299
2017-07-18T16:20:19.808Z,100311
2017-07-18T16:22:48.904Z,100315
2017-07-18T16:28:17.348Z,100309
2017-07-18T16:30:45.642Z,100316
2017-07-18T16:33:13.890Z,100311
2017-07-18T16:35:43.268Z,100320
2017-07-18T16:41:38.485Z,100317
2017-07-18T16:47:08.162Z,100309
2017-07-18T16:49:36.394Z,100316
2017-07-18T16:55:04.805Z,100312
2017-07-18T17:00:33.115Z,100317
2017-07-18T17:03:01.425Z,100306
2017-07-18T17:05:29.653Z,100311
2017-07-18T17:07:58.158Z,100299
2017-07-18T17:13:26.718Z,100307
2017-07-18T17:15:54.964Z,100300
2017-07-18T17:18:23.223Z,100302
2017-07-18T17:20:51.513Z,100295
2017-07-18T17:23:39.710Z,100296
2017-07-18T17:26:07.979Z,100298
2017-07-18T17:28:36.235Z,100297
2017-07-18T17:31:04.490Z,100300
2017-07-18T17:42:35.480Z,100289
2017-07-18T17:45:04.223Z,100294
2017-07-18T17:47:32.472Z,100293
2017-07-18T17:59:02.365Z,100305
2017-07-18T18:01:30.654Z,100298
2017-07-18T18:03:58.903Z,100304
2017-07-18T18:06:27.255Z,100302
2017-07-18T18:08:55.513Z,100308
2017-07-18T18:11:23.761Z,100309
2017-07-18T18:13:52.093Z,100306
2017-07-18T18:16:21.142Z,100304
2017-07-18T18:21:49.429Z,100308
2017-07-18T18:24:18.021Z,100307
2017-07-18T18:26:47.453Z,100306
2017-07-18T18:29:16.515Z,100308
2017-07-18T18:46:49.489Z,100311
2017-07-18T18:55:19.245Z,100315
2017-07-18T18:57:47.471Z,100315
2017-07-18T19:00:38.277Z,100317
2017-07-18T19:09:07.698Z,100304
2017-07-18T19:14:38.621Z,100310
2017-07-18T19:17:06.878Z,100308
2017-07-18T19:19:35.193Z,100317
2017-07-18T19:22:03.434Z,100320
2017-07-18T19:24:31.675Z,100318
2017-07-18T19:30:01.379Z,100321
2017-07-18T19:32:29.624Z,100320
2017-07-18T19:34:58.474Z,100312
2017-07-18T19:37:26.771Z,100311
2017-07-18T19:45:55.751Z,100313
2017-07-18T19:48:25.262Z,100311
2017-07-18T19:50:53.560Z,100302
2017-07-18T19:53:21.820Z,100304
2017-07-18T19:55:50.885Z,100310
2017-07-18T20:10:21.433Z,100302
2017-07-18T20:15:49.754Z,100299
2017-07-18T20:18:17.996Z,100305
2017-07-18T20:20:46.656Z,100309
2017-07-18T20:26:14.856Z,100306
2017-07-18T20:28:43.854Z,100313
2017-07-18T20:31:12.109Z,100309
2017-07-18T20:33:42.215Z,100311
2017-07-18T20:39:11.228Z,100306
2017-07-18T20:44:40.881Z,100317
2017-07-18T20:47:09.902Z,100308
2017-07-18T20:55:38.972Z,100303
2017-07-18T20:58:07.210Z,100294
2017-07-18T21:00:35.492Z,100306
2017-07-18T21:03:03.770Z,100306
2017-07-18T21:11:32.917Z,100308
2017-07-18T21:14:01.174Z,100309
2017-07-18T21:16:29.437Z,100309
2017-07-18T21:18:58.463Z,100311
2017-07-18T21:24:40.654Z,100318
2017-07-18T21:27:10.395Z,100318
2017-07-18T21:29:38.644Z,100311
2017-07-18T21:35:13.377Z,100313
2017-07-18T21:37:42.255Z,100313
2017-07-18T21:40:10.499Z,100307
2017-07-18T21:42:38.805Z,100307
2017-07-18T21:45:07.080Z,100306
2017-07-18T21:50:36.939Z,100312
2017-07-18T21:53:05.200Z,100308
2017-07-18T21:55:33.476Z,100304
2017-07-18T21:58:02.778Z,100314
2017-07-18T22:00:51.822Z,100310
2017-07-18T22:06:20.257Z,100315
2017-07-18T22:08:48.966Z,100311
2017-07-18T22:11:17.212Z,100309
2017-07-18T22:16:45.999Z,100310
2017-07-18T22:19:15.100Z,100320
2017-07-18T22:21:44.107Z,100317
2017-07-18T22:24:13.099Z,100326
2017-07-18T22:26:42.551Z,100321
2017-07-18T22:29:10.813Z,100313
2017-07-18T22:31:39.065Z,100312
2017-07-18T22:34:37.702Z,100309
2017-07-18T22:37:05.944Z,100307
2017-07-18T22:42:41.420Z,100306
2017-07-18T22:48:11.213Z,100289
2017-07-18T22:50:39.464Z,100284
2017-07-18T22:53:08.483Z,100289
2017-07-18T22:55:36.860Z,100281
2017-07-18T23:01:05.640Z,100286
2017-07-18T23:03:34.736Z,100285
2017-07-18T23:06:03.753Z,100281
2017-07-18T23:08:32.005Z,100279
2017-07-18T23:17:01.016Z,100285
2017-07-18T23:19:29.349Z,100280
2017-07-18T23:21:58.351Z,100283
2017-07-18T23:27:39.979Z,100293
2017-07-18T23:30:09.125Z,100288
2017-07-18T23:32:38.148Z,100280
2017-07-18T23:35:06.430Z,100288
2017-07-18T23:37:34.679Z,100288
2017-07-18T23:40:02.976Z,100286
2017-07-18T23:42:39.318Z,100283
2017-07-18T23:45:09.013Z,100280
2017-07-18T23:47:38.022Z,100283
2017-07-18T23:50:06.310Z,100281
2017-07-18T23:55:35.507Z,100282
2017-07-18T23:58:03.758Z,100286
